Time;durP1;ratioP1;P1;durP2;ratioP2;P2;SDS_P1;SDS_P2;PMS_P1;PMS_P2;Temp;Humidity;BMP_temperature;BMP_pressure;BME280_temperature;BME280_humidity;BME280_pressure;Samples;Min_cycle;Max_cycle;Signal;HPM_P1;HPM_P2
2023/10/06 00:00:35;;;;;;;4.72;2.83;;;10.30;99.90;;;;;;5079277;28;20256;-60
2023/10/06 00:03:05;;;;;;;4.70;2.90;;;10.30;99.90;;;;;;5072075;28;20206;-59
2023/10/06 00:05:34;;;;;;;2.58;2.38;;;10.30;99.90;;;;;;5072035;28;20252;-61
2023/10/06 00:08:04;;;;;;;9.35;2.67;;;10.20;99.90;;;;;;5071981;28;20225;-61
2023/10/06 00:10:32;;;;;;;4.60;2.40;;;10.20;99.90;;;;;;5071553;28;20209;-60
2023/10/06 00:13:01;;;;;;;6.40;2.75;;;10.20;99.90;;;;;;5071853;28;20313;-61
2023/10/06 00:15:35;;;;;;;5.55;3.22;;;10.20;99.90;;;;;;5071768;28;20209;-61
2023/10/06 00:18:07;;;;;;;3.45;2.42;;;10.20;99.90;;;;;;5071697;28;20231;-60
2023/10/06 00:20:42;;;;;;;11.55;2.70;;;10.10;99.90;;;;;;5071439;28;20579;-60
2023/10/06 00:23:13;;;;;;;5.00;2.97;;;10.10;99.90;;;;;;5071735;28;20209;-61
2023/10/06 00:25:42;;;;;;;7.90;3.10;;;10.10;99.90;;;;;;5071400;28;20292;-61
2023/10/06 00:28:17;;;;;;;5.50;2.90;;;10.10;99.90;;;;;;5071416;28;20572;-61
2023/10/06 00:30:47;;;;;;;3.65;2.40;;;10.10;99.90;;;;;;5071180;28;20689;-60
2023/10/06 00:33:17;;;;;;;4.97;3.13;;;10.10;99.90;;;;;;5071751;28;20257;-61
2023/10/06 00:35:48;;;;;;;5.40;2.47;;;10.00;99.90;;;;;;5071230;28;20252;-58
2023/10/06 00:38:17;;;;;;;7.22;2.60;;;10.00;99.90;;;;;;5071586;28;20201;-59
2023/10/06 00:40:51;;;;;;;4.90;2.70;;;10.00;99.90;;;;;;5071077;28;20251;-61
2023/10/06 00:43:34;;;;;;;5.15;3.15;;;10.00;99.90;;;;;;5070346;28;20692;-58
2023/10/06 00:46:07;;;;;;;6.00;2.40;;;10.00;99.90;;;;;;5069756;28;20282;-61
2023/10/06 00:48:39;;;;;;;5.55;2.55;;;10.00;99.90;;;;;;5069940;28;20364;-59
2023/10/06 00:51:12;;;;;;;6.90;3.00;;;9.90;99.90;;;;;;5069407;28;20288;-58
2023/10/06 00:53:40;;;;;;;5.25;2.80;;;9.90;99.90;;;;;;5069880;28;20225;-60
2023/10/06 00:56:14;;;;;;;3.53;2.42;;;9.90;99.90;;;;;;5069471;28;20311;-61
2023/10/06 00:58:43;;;;;;;4.60;2.00;;;9.90;99.90;;;;;;5069640;28;20223;-60
2023/10/06 01:01:12;;;;;;;5.30;2.15;;;9.90;99.90;;;;;;5069204;28;20587;-60
2023/10/06 01:03:43;;;;;;;3.70;2.13;;;9.90;99.90;;;;;;5069870;28;20258;-61
2023/10/06 01:06:14;;;;;;;4.90;2.33;;;9.90;99.90;;;;;;5069588;28;20236;-60
2023/10/06 01:08:45;;;;;;;7.13;2.70;;;9.80;99.90;;;;;;5069957;28;20206;-60
2023/10/06 01:11:16;;;;;;;5.30;1.98;;;9.80;99.90;;;;;;5069245;28;20283;-60
2023/10/06 01:13:55;;;;;;;9.00;2.75;;;9.70;99.90;;;;;;5069606;28;20315;-60
2023/10/06 01:16:26;;;;;;;3.33;2.22;;;9.70;99.90;;;;;;5069451;28;20377;-61
2023/10/06 01:19:01;;;;;;;8.23;2.50;;;9.70;99.90;;;;;;5069678;28;20213;-59
2023/10/06 01:21:29;;;;;;;6.18;3.15;;;9.70;99.90;;;;;;5069250;28;20208;-61
2023/10/06 01:23:59;;;;;;;7.30;2.75;;;9.70;99.90;;;;;;5069462;28;20703;-60
2023/10/06 01:26:27;;;;;;;3.92;2.92;;;9.70;99.90;;;;;;5069387;28;20225;-61
2023/10/06 01:28:56;;;;;;;4.45;2.20;;;9.60;99.90;;;;;;5069559;28;20301;-59
2023/10/06 01:31:25;;;;;;;6.38;2.88;;;9.60;99.90;;;;;;5069315;28;20205;-60
2023/10/06 01:33:54;;;;;;;5.03;2.60;;;9.60;99.90;;;;;;5069332;28;20221;-60
2023/10/06 01:36:23;;;;;;;5.93;2.60;;;9.60;99.90;;;;;;5069034;28;20311;-60
2023/10/06 01:38:52;;;;;;;4.50;2.70;;;9.50;99.90;;;;;;5069485;28;20205;-59
2023/10/06 01:41:22;;;;;;;6.80;2.55;;;9.50;99.90;;;;;;5081239;28;20297;-61
2023/10/06 01:43:51;;;;;;;5.45;2.47;;;9.50;99.90;;;;;;5088805;28;20261;-61
2023/10/06 01:46:20;;;;;;;5.65;2.70;;;9.50;99.90;;;;;;5089631;28;20299;-61
2023/10/06 01:48:47;;;;;;;9.48;2.50;;;9.50;99.90;;;;;;5092470;28;20209;-60
2023/10/06 01:51:15;;;;;;;9.32;2.60;;;9.50;99.90;;;;;;5093456;28;20208;-61
2023/10/06 01:53:44;;;;;;;8.02;2.88;;;9.50;99.90;;;;;;5093543;28;20256;-60
2023/10/06 01:56:14;;;;;;;9.57;3.00;;;9.50;99.90;;;;;;5093238;28;20247;-60
2023/10/06 01:58:43;;;;;;;12.68;3.00;;;9.50;99.90;;;;;;5093461;28;20224;-61
2023/10/06 02:01:18;;;;;;;11.02;4.03;;;9.40;99.90;;;;;;5093012;28;20212;-59
2023/10/06 02:03:46;;;;;;;6.40;3.97;;;9.40;99.90;;;;;;5093762;28;20291;-61
2023/10/06 02:06:16;;;;;;;13.15;3.70;;;9.40;99.90;;;;;;5085760;28;20226;-61
2023/10/06 02:08:49;;;;;;;10.02;3.83;;;9.40;99.90;;;;;;5094540;28;20204;-60
2023/10/06 02:11:17;;;;;;;6.30;3.63;;;9.40;99.90;;;;;;5094617;28;20205;-61
2023/10/06 02:13:47;;;;;;;6.30;3.10;;;9.30;99.90;;;;;;5094435;28;20319;-61
2023/10/06 02:16:18;;;;;;;5.05;2.90;;;9.30;99.90;;;;;;5093166;28;20220;-61
2023/10/06 02:18:45;;;;;;;6.82;2.75;;;9.30;99.90;;;;;;5094739;28;20205;-61
2023/10/06 02:21:14;;;;;;;8.13;3.42;;;9.30;99.90;;;;;;5092750;28;20367;-61
2023/10/06 02:23:43;;;;;;;7.50;3.35;;;9.30;99.90;;;;;;5079419;28;20201;-61
2023/10/06 02:26:13;;;;;;;9.95;4.07;;;9.30;99.90;;;;;;5073810;28;20253;-61
2023/10/06 02:28:44;;;;;;;6.20;3.67;;;9.30;99.90;;;;;;5074359;28;20256;-61
2023/10/06 02:31:13;;;;;;;9.98;3.83;;;9.30;99.90;;;;;;5074057;28;20251;-59
2023/10/06 02:33:47;;;;;;;11.35;4.93;;;9.30;99.90;;;;;;5074069;28;20678;-61
2023/10/06 02:36:21;;;;;;;11.45;4.75;;;9.30;99.90;;;;;;5084829;28;20329;-61
2023/10/06 02:38:49;;;;;;;7.22;4.65;;;9.20;99.90;;;;;;5094432;28;20212;-61
2023/10/06 02:41:19;;;;;;;14.95;4.68;;;9.30;99.90;;;;;;5094426;28;20216;-61
2023/10/06 02:43:48;;;;;;;11.13;4.68;;;9.20;99.90;;;;;;5094569;28;20201;-60
2023/10/06 02:46:20;;;;;;;7.70;3.85;;;9.20;99.90;;;;;;5094046;28;20281;-61
2023/10/06 02:48:51;;;;;;;16.45;3.97;;;9.20;99.90;;;;;;5094185;28;20208;-59
2023/10/06 02:51:22;;;;;;;9.82;3.78;;;9.20;99.90;;;;;;5081638;28;20750;-60
2023/10/06 02:53:51;;;;;;;8.65;3.72;;;9.20;99.90;;;;;;5074042;28;20225;-61
2023/10/06 02:56:29;;;;;;;6.63;3.55;;;9.20;99.90;;;;;;5073503;28;20281;-60
2023/10/06 02:59:06;;;;;;;6.78;3.78;;;9.20;99.90;;;;;;5072273;28;20674;-59
2023/10/06 03:01:38;;;;;;;9.43;3.70;;;9.20;99.90;;;;;;5086795;28;20215;-61
2023/10/06 03:04:08;;;;;;;9.27;4.00;;;9.20;99.90;;;;;;5084089;28;20244;-61
2023/10/06 03:06:35;;;;;;;8.63;4.22;;;9.20;99.90;;;;;;5073384;28;20773;-61
2023/10/06 03:09:07;;;;;;;12.80;4.45;;;9.10;99.90;;;;;;5073469;28;20235;-61
2023/10/06 03:11:38;;;;;;;9.00;4.45;;;9.10;99.90;;;;;;5073430;28;20762;-61
2023/10/06 03:14:07;;;;;;;13.85;4.95;;;9.10;99.90;;;;;;5073675;28;20228;-60
2023/10/06 03:16:39;;;;;;;11.27;5.20;;;9.10;99.90;;;;;;5072926;28;20702;-60
2023/10/06 03:19:12;;;;;;;11.05;4.35;;;9.10;99.90;;;;;;5073759;28;20202;-59
2023/10/06 03:21:45;;;;;;;12.95;4.75;;;9.10;99.90;;;;;;5073690;28;20209;-61
2023/10/06 03:24:30;;;;;;;13.20;5.57;;;9.10;99.90;;;;;;5072641;28;20201;-61
2023/10/06 03:26:59;;;;;;;12.70;5.28;;;9.00;99.90;;;;;;5073476;28;20710;-61
2023/10/06 03:29:43;;;;;;;9.23;5.13;;;9.00;99.90;;;;;;5073561;28;20237;-61
2023/10/06 03:32:22;;;;;;;13.95;5.03;;;9.00;99.90;;;;;;5073022;28;20258;-61
2023/10/06 03:34:51;;;;;;;12.48;4.75;;;9.00;99.90;;;;;;5072872;28;20260;-60
2023/10/06 03:37:34;;;;;;;11.30;4.38;;;8.90;99.90;;;;;;5072974;28;20229;-61
2023/10/06 03:40:11;;;;;;;9.23;4.75;;;8.90;99.90;;;;;;5072961;28;20209;-61
2023/10/06 03:42:39;;;;;;;8.38;4.28;;;8.90;99.90;;;;;;5073027;28;20201;-60
2023/10/06 03:45:18;;;;;;;17.70;5.65;;;8.90;99.90;;;;;;5072878;28;20212;-61
2023/10/06 03:47:48;;;;;;;11.45;5.93;;;8.90;99.90;;;;;;5072854;28;20232;-60
2023/10/06 03:50:19;;;;;;;6.78;4.70;;;8.90;99.90;;;;;;5072165;28;20667;-60
2023/10/06 03:52:47;;;;;;;7.60;4.63;;;8.90;99.90;;;;;;5079385;28;20209;-61
2023/10/06 03:55:17;;;;;;;13.13;4.75;;;8.80;99.90;;;;;;5092983;28;20729;-61
2023/10/06 03:57:46;;;;;;;10.68;5.30;;;8.80;99.90;;;;;;5092719;28;20236;-60
2023/10/06 04:00:19;;;;;;;10.93;5.07;;;8.80;99.90;;;;;;5092438;28;20330;-61
2023/10/06 04:02:48;;;;;;;8.55;5.35;;;8.80;99.90;;;;;;5092756;28;20682;-61
2023/10/06 04:05:18;;;;;;;9.63;5.22;;;8.70;99.90;;;;;;5092575;28;20288;-61
2023/10/06 04:07:46;;;;;;;12.45;5.22;;;8.80;99.90;;;;;;5092809;28;20651;-60
2023/10/06 04:10:16;;;;;;;14.82;5.45;;;8.70;99.90;;;;;;5091761;28;20209;-61
2023/10/06 04:12:44;;;;;;;14.27;5.70;;;8.70;99.90;;;;;;5092519;28;20213;-61
2023/10/06 04:15:15;;;;;;;12.27;5.57;;;8.70;99.90;;;;;;5092629;28;20232;-61
2023/10/06 04:17:43;;;;;;;12.23;5.25;;;8.70;99.90;;;;;;5090490;28;20278;-61
2023/10/06 04:20:14;;;;;;;11.95;5.07;;;8.70;99.90;;;;;;5082468;28;20202;-61
2023/10/06 04:22:43;;;;;;;16.23;5.13;;;8.70;99.90;;;;;;5077354;28;20206;-61
2023/10/06 04:25:11;;;;;;;6.55;5.10;;;8.70;99.90;;;;;;5072459;28;20212;-61
2023/10/06 04:27:39;;;;;;;8.98;4.72;;;8.70;99.90;;;;;;5071889;28;20721;-61
2023/10/06 04:30:12;;;;;;;8.50;5.95;;;8.70;99.90;;;;;;5071822;28;20292;-61
2023/10/06 04:32:40;;;;;;;6.93;4.95;;;8.70;99.90;;;;;;5072071;28;20201;-61
2023/10/06 04:35:20;;;;;;;12.30;5.35;;;8.60;99.90;;;;;;5072587;28;20315;-61
2023/10/06 04:37:50;;;;;;;9.68;5.70;;;8.60;99.90;;;;;;5091852;28;20232;-61
2023/10/06 04:40:21;;;;;;;13.98;5.93;;;8.60;99.90;;;;;;5091573;28;20208;-60
2023/10/06 04:42:49;;;;;;;10.45;5.88;;;8.60;99.90;;;;;;5077332;28;20270;-61
2023/10/06 04:45:17;;;;;;;9.95;5.50;;;8.70;99.90;;;;;;5071578;28;20229;-58
2023/10/06 04:47:45;;;;;;;7.78;5.38;;;8.60;99.90;;;;;;5071467;28;20260;-59
2023/10/06 04:50:16;;;;;;;8.32;5.13;;;8.50;99.90;;;;;;5071864;28;20300;-61
2023/10/06 04:52:46;;;;;;;7.80;5.07;;;8.50;99.90;;;;;;5072113;28;20209;-61
2023/10/06 04:55:16;;;;;;;8.82;5.68;;;8.50;99.90;;;;;;5071353;28;20225;-61
2023/10/06 04:57:44;;;;;;;10.98;6.30;;;8.60;99.90;;;;;;5071344;28;20228;-61
2023/10/06 05:00:19;;;;;;;13.88;7.07;;;8.60;99.90;;;;;;5071241;28;20227;-61
2023/10/06 05:02:47;;;;;;;13.68;7.57;;;8.60;99.90;;;;;;5075487;28;20200;-61
2023/10/06 05:05:19;;;;;;;11.55;6.18;;;8.60;99.90;;;;;;5087640;28;20193;-61
2023/10/06 05:07:48;;;;;;;10.95;6.93;;;8.60;99.90;;;;;;5117984;22;20219;-53
2023/10/06 05:10:21;;;;;;;11.38;6.13;;;8.60;99.90;;;;;;5112773;27;20204;-54
2023/10/06 05:12:49;;;;;;;10.23;6.57;;;8.60;99.90;;;;;;5111465;28;20265;-54
2023/10/06 05:15:23;;;;;;;9.80;6.03;;;8.60;99.90;;;;;;5113128;27;20344;-54
2023/10/06 05:17:55;;;;;;;11.82;7.20;;;8.60;99.90;;;;;;5122281;27;20223;-53
2023/10/06 05:20:29;;;;;;;12.82;6.82;;;8.70;99.90;;;;;;5111059;28;20567;-55
2023/10/06 05:22:58;;;;;;;8.82;6.60;;;8.70;99.90;;;;;;5110794;28;20204;-54
2023/10/06 05:25:29;;;;;;;10.52;7.30;;;8.80;99.90;;;;;;5111154;28;20211;-55
2023/10/06 05:27:59;;;;;;;10.40;7.05;;;8.70;99.90;;;;;;5105924;28;20227;-55
2023/10/06 05:30:28;;;;;;;10.13;7.30;;;8.80;99.90;;;;;;5105897;28;20552;-54
2023/10/06 05:32:57;;;;;;;13.82;7.25;;;8.70;99.90;;;;;;5100259;28;20651;-53
2023/10/06 05:35:25;;;;;;;11.18;7.60;;;8.80;99.90;;;;;;5108279;28;20232;-53
2023/10/06 05:37:54;;;;;;;9.27;7.13;;;8.80;99.90;;;;;;5106615;28;20302;-54
2023/10/06 05:40:21;;;;;;;10.85;6.70;;;8.80;99.90;;;;;;5103670;28;20196;-54
2023/10/06 05:42:51;;;;;;;12.32;7.30;;;8.80;99.90;;;;;;5109821;28;20317;-53
2023/10/06 05:45:19;;;;;;;9.88;7.32;;;8.80;99.90;;;;;;5103936;28;20228;-56
2023/10/06 05:47:48;;;;;;;12.02;7.60;;;8.80;99.90;;;;;;5111411;28;20248;-54
2023/10/06 05:50:18;;;;;;;13.20;6.43;;;8.80;99.90;;;;;;5111335;28;20750;-53
2023/10/06 05:52:51;;;;;;;9.48;6.78;;;8.80;99.90;;;;;;5111486;28;20203;-54
2023/10/06 05:55:20;;;;;;;10.73;6.20;;;8.90;99.90;;;;;;5111434;28;20286;-58
2023/10/06 05:57:52;;;;;;;9.75;6.50;;;8.90;99.90;;;;;;5100106;28;20753;-53
2023/10/06 06:00:25;;;;;;;8.43;5.45;;;8.90;99.90;;;;;;5110901;28;20736;-56
2023/10/06 06:02:54;;;;;;;7.75;5.78;;;8.90;99.90;;;;;;5126446;28;20656;-55
2023/10/06 06:05:22;;;;;;;6.93;6.03;;;8.90;99.90;;;;;;5132107;28;20211;-55
2023/10/06 06:07:51;;;;;;;9.07;6.35;;;8.90;99.90;;;;;;5130607;28;20234;-53
2023/10/06 06:10:21;;;;;;;9.77;6.22;;;9.00;99.90;;;;;;5131430;28;20199;-55
2023/10/06 06:12:49;;;;;;;8.05;6.20;;;9.00;99.90;;;;;;5131871;28;20199;-56
2023/10/06 06:15:17;;;;;;;7.03;5.70;;;9.00;99.90;;;;;;5131914;28;20206;-53
2023/10/06 06:17:46;;;;;;;6.75;5.68;;;9.10;99.90;;;;;;5131157;27;20215;-54
2023/10/06 06:20:18;;;;;;;7.55;5.60;;;9.10;99.90;;;;;;5131578;28;20206;-54
2023/10/06 06:22:53;;;;;;;6.32;5.20;;;9.10;99.90;;;;;;5131838;27;20207;-55
2023/10/06 06:25:21;;;;;;;5.30;4.80;;;9.10;99.90;;;;;;5131706;27;20203;-54
2023/10/06 06:27:49;;;;;;;5.72;5.13;;;9.00;99.90;;;;;;5131204;28;20250;-53
2023/10/06 06:30:18;;;;;;;8.52;5.53;;;9.10;99.90;;;;;;5131271;28;20227;-54
2023/10/06 06:32:49;;;;;;;5.68;4.97;;;9.10;99.90;;;;;;5131323;28;20211;-54
2023/10/06 06:35:19;;;;;;;8.55;5.38;;;9.10;99.90;;;;;;5135099;27;20547;-54
2023/10/06 06:37:50;;;;;;;7.78;5.65;;;9.10;99.90;;;;;;5134967;27;20755;-53
2023/10/06 06:40:20;;;;;;;6.35;5.25;;;9.10;99.90;;;;;;5134925;27;20599;-55
2023/10/06 06:42:51;;;;;;;7.05;5.72;;;9.20;99.90;;;;;;5134770;27;20203;-54
2023/10/06 06:45:19;;;;;;;8.07;6.60;;;9.20;99.90;;;;;;5135030;27;20199;-54
2023/10/06 06:47:48;;;;;;;8.43;6.45;;;9.20;99.90;;;;;;5134682;27;20302;-53
2023/10/06 06:50:17;;;;;;;10.10;7.07;;;9.20;99.90;;;;;;5134328;27;20277;-55
2023/10/06 06:52:45;;;;;;;10.50;7.50;;;9.30;99.90;;;;;;5134382;27;20199;-53
2023/10/06 06:55:17;;;;;;;11.00;7.53;;;9.30;99.90;;;;;;5134596;27;20260;-53
2023/10/06 06:57:46;;;;;;;10.75;8.13;;;9.30;99.90;;;;;;5134381;27;20647;-53
2023/10/06 07:00:22;;;;;;;15.90;9.45;;;9.40;99.90;;;;;;5134608;27;20221;-55
2023/10/06 07:02:52;;;;;;;21.27;11.05;;;9.50;99.90;;;;;;5134620;27;20640;-57
2023/10/06 07:05:21;;;;;;;16.42;10.77;;;9.50;99.90;;;;;;5134729;27;20203;-55
2023/10/06 07:07:50;;;;;;;16.63;10.63;;;9.50;99.90;;;;;;5134155;27;20226;-53
2023/10/06 07:10:20;;;;;;;15.38;9.98;;;9.60;99.90;;;;;;5134060;27;20222;-57
2023/10/06 07:12:48;;;;;;;16.88;11.13;;;9.60;99.90;;;;;;5134170;27;20252;-54
2023/10/06 07:15:17;;;;;;;19.02;11.55;;;9.60;99.90;;;;;;5134640;27;20239;-56
2023/10/06 07:17:45;;;;;;;17.98;11.38;;;9.60;99.90;;;;;;5134167;27;20223;-55
2023/10/06 07:20:16;;;;;;;15.00;10.43;;;9.70;99.90;;;;;;5133851;27;20665;-54
2023/10/06 07:22:47;;;;;;;17.00;10.77;;;9.70;99.90;;;;;;5134434;27;20219;-57
2023/10/06 07:25:16;;;;;;;26.33;11.98;;;9.80;99.90;;;;;;5134479;27;20231;-54
2023/10/06 07:27:45;;;;;;;25.70;13.30;;;9.80;99.90;;;;;;5133963;27;20250;-54
2023/10/06 07:30:14;;;;;;;22.25;11.90;;;9.80;99.90;;;;;;5133821;27;20199;-59
2023/10/06 07:32:43;;;;;;;27.55;12.07;;;9.90;99.90;;;;;;5133912;27;20207;-54
2023/10/06 07:35:12;;;;;;;16.83;10.00;;;10.00;99.90;;;;;;5134427;27;20232;-56
2023/10/06 07:37:42;;;;;;;22.40;11.68;;;10.00;99.90;;;;;;5133803;27;20226;-53
2023/10/06 07:40:14;;;;;;;25.70;11.98;;;10.10;99.90;;;;;;5133812;27;20207;-53
2023/10/06 07:42:43;;;;;;;21.42;8.95;;;10.10;99.90;;;;;;5134013;27;20256;-53
2023/10/06 07:45:12;;;;;;;14.77;7.95;;;10.20;99.90;;;;;;5133450;27;20203;-54
2023/10/06 07:47:42;;;;;;;13.00;7.22;;;10.20;99.90;;;;;;5133902;27;20216;-54
2023/10/06 07:50:12;;;;;;;13.13;7.50;;;10.20;99.90;;;;;;5134186;27;20195;-54
2023/10/06 07:52:42;;;;;;;13.43;7.22;;;10.30;99.90;;;;;;5133197;27;20242;-54
2023/10/06 07:55:11;;;;;;;12.80;6.88;;;10.30;99.90;;;;;;5133194;27;20231;-55
2023/10/06 07:57:41;;;;;;;12.60;7.10;;;10.30;99.90;;;;;;5133262;27;20254;-54
2023/10/06 08:00:11;;;;;;;12.20;7.75;;;10.30;99.90;;;;;;5133694;27;20203;-55
2023/10/06 08:02:40;;;;;;;14.65;7.10;;;10.40;99.90;;;;;;5133213;27;20249;-57
2023/10/06 08:05:11;;;;;;;15.52;8.30;;;10.50;99.90;;;;;;5132982;27;20292;-56
2023/10/06 08:07:39;;;;;;;14.07;8.32;;;10.60;99.90;;;;;;5132833;27;20227;-54
2023/10/06 08:10:13;;;;;;;15.38;8.50;;;10.60;99.90;;;;;;5133145;27;20266;-56
2023/10/06 08:12:43;;;;;;;18.48;9.60;;;10.70;99.90;;;;;;5133177;27;20747;-54
2023/10/06 08:15:11;;;;;;;13.73;8.85;;;10.70;99.90;;;;;;5133255;27;20230;-56
2023/10/06 08:17:41;;;;;;;9.75;7.53;;;10.80;99.90;;;;;;5132635;27;20222;-54
2023/10/06 08:20:12;;;;;;;13.63;9.27;;;10.90;99.90;;;;;;5133348;27;20575;-55
2023/10/06 08:22:40;;;;;;;17.88;11.02;;;10.90;99.90;;;;;;5132988;27;20278;-57
2023/10/06 08:25:09;;;;;;;15.98;10.23;;;11.00;99.90;;;;;;5133460;27;20269;-56
2023/10/06 08:27:39;;;;;;;16.85;10.48;;;11.00;99.90;;;;;;5133059;27;20254;-55
2023/10/06 08:30:09;;;;;;;16.50;10.98;;;11.10;99.90;;;;;;5132864;27;20199;-54
2023/10/06 08:32:37;;;;;;;18.60;11.75;;;11.20;99.90;;;;;;5132362;27;20203;-54
2023/10/06 08:35:13;;;;;;;17.17;10.65;;;11.20;99.90;;;;;;5133207;27;20648;-55
2023/10/06 08:37:42;;;;;;;20.92;13.05;;;11.30;99.90;;;;;;5133068;27;20223;-56
2023/10/06 08:40:16;;;;;;;26.55;14.25;;;11.40;99.90;;;;;;5133011;27;20812;-54
2023/10/06 08:42:46;;;;;;;22.52;14.20;;;11.50;99.90;;;;;;5132801;27;20683;-55
2023/10/06 08:45:16;;;;;;;22.63;14.02;;;11.60;99.90;;;;;;5133122;27;20284;-56
2023/10/06 08:47:44;;;;;;;25.27;15.27;;;11.70;99.90;;;;;;5132908;27;20276;-55
2023/10/06 08:50:28;;;;;;;20.80;13.77;;;11.80;99.90;;;;;;5132637;27;20579;-55
2023/10/06 08:52:56;;;;;;;27.23;15.38;;;11.80;99.90;;;;;;5132846;27;20241;-55
2023/10/06 08:55:27;;;;;;;27.20;15.63;;;11.90;99.90;;;;;;5132694;27;20203;-54
2023/10/06 08:57:58;;;;;;;27.73;16.00;;;11.90;99.90;;;;;;5132133;27;20229;-54
2023/10/06 09:00:32;;;;;;;23.80;15.35;;;12.00;99.90;;;;;;5132240;27;20207;-53
2023/10/06 09:03:07;;;;;;;24.90;15.25;;;12.30;99.90;;;;;;5132381;27;20211;-55
2023/10/06 09:05:37;;;;;;;21.08;15.65;;;12.50;99.90;;;;;;5131799;27;20579;-58
2023/10/06 09:08:07;;;;;;;25.10;14.73;;;12.70;99.90;;;;;;5132038;27;20219;-56
2023/10/06 09:10:36;;;;;;;20.67;13.88;;;12.70;99.90;;;;;;5132154;27;20812;-55
2023/10/06 09:13:05;;;;;;;18.73;13.52;;;12.70;99.90;;;;;;5132014;27;20223;-55
2023/10/06 09:15:35;;;;;;;20.30;13.95;;;12.90;99.90;;;;;;5132440;27;20256;-54
2023/10/06 09:18:19;;;;;;;21.05;13.32;;;13.10;99.90;;;;;;5131582;27;20770;-54
2023/10/06 09:20:47;;;;;;;19.15;12.82;;;13.40;99.90;;;;;;5132011;27;20719;-55
2023/10/06 09:23:30;;;;;;;19.50;12.05;;;13.60;99.90;;;;;;5132343;27;20660;-55
2023/10/06 09:26:00;;;;;;;18.35;12.45;;;13.80;99.90;;;;;;5132307;27;20231;-56
2023/10/06 09:28:28;;;;;;;16.08;10.43;;;14.00;99.90;;;;;;5132357;28;20660;-56
2023/10/06 09:31:01;;;;;;;14.25;10.65;;;14.20;99.90;;;;;;5132176;28;20255;-55
2023/10/06 09:33:29;;;;;;;17.73;10.10;;;14.40;99.90;;;;;;5132563;27;20238;-54
2023/10/06 09:36:06;;;;;;;16.88;9.93;;;14.70;99.90;;;;;;5132370;28;20234;-56
2023/10/06 09:38:36;;;;;;;17.90;8.55;;;15.10;99.90;;;;;;5132419;28;20230;-56
2023/10/06 09:41:07;;;;;;;8.55;7.28;;;15.40;99.90;;;;;;5132097;28;20695;-56
2023/10/06 09:43:36;;;;;;;13.90;7.55;;;15.60;99.90;;;;;;5132333;27;20585;-55
2023/10/06 09:46:07;;;;;;;10.95;7.88;;;15.70;99.90;;;;;;5132061;28;20222;-57
2023/10/06 09:48:36;;;;;;;11.98;7.57;;;15.90;99.90;;;;;;5132595;27;20632;-54
2023/10/06 09:51:07;;;;;;;7.75;6.65;;;16.00;99.90;;;;;;5132022;27;20203;-56
2023/10/06 09:53:38;;;;;;;8.23;7.13;;;16.10;99.90;;;;;;5132212;28;20207;-54
2023/10/06 09:56:09;;;;;;;9.13;6.93;;;16.10;99.90;;;;;;5132219;28;20203;-56
2023/10/06 09:58:38;;;;;;;7.88;6.95;;;16.10;99.90;;;;;;5103520;28;20220;-55
2023/10/06 10:01:10;;;;;;;12.43;7.22;;;16.20;99.90;;;;;;5102274;28;20203;-56
2023/10/06 10:03:38;;;;;;;13.20;8.13;;;16.20;99.90;;;;;;5108244;28;20268;-58
2023/10/06 10:06:06;;;;;;;10.23;7.28;;;16.30;99.90;;;;;;5103461;28;20221;-56
2023/10/06 10:08:34;;;;;;;8.73;7.05;;;16.50;99.90;;;;;;5103348;28;20204;-58
2023/10/06 10:11:05;;;;;;;11.85;7.22;;;16.90;99.90;;;;;;5115063;28;20629;-56
2023/10/06 10:13:49;;;;;;;9.05;6.25;;;17.20;99.90;;;;;;5134311;27;20203;-55
2023/10/06 10:16:25;;;;;;;10.05;5.78;;;17.60;99.90;;;;;;5135864;27;20195;-57
2023/10/06 10:18:56;;;;;;;9.38;6.03;;;18.10;99.90;;;;;;5135828;27;20218;-55
2023/10/06 10:21:24;;;;;;;9.75;5.40;;;18.50;99.90;;;;;;5135450;27;20242;-56
2023/10/06 10:23:52;;;;;;;12.52;5.30;;;18.80;99.90;;;;;;5136107;27;20226;-55
2023/10/06 10:26:39;;;;;;;8.98;5.63;;;19.10;99.90;;;;;;5135304;27;20279;-55
2023/10/06 10:29:31;;;;;;;9.52;5.20;;;19.20;99.90;;;;;;5135695;27;20210;-56
2023/10/06 10:32:11;;;;;;;10.07;5.82;;;19.50;99.90;;;;;;5135377;27;20207;-57
2023/10/06 10:35:07;;;;;;;8.57;5.35;;;19.70;99.90;;;;;;5135617;27;20678;-55
2023/10/06 10:37:55;;;;;;;12.32;5.53;;;19.90;99.90;;;;;;5135513;27;20252;-56
2023/10/06 10:40:24;;;;;;;8.18;5.05;;;20.20;99.90;;;;;;5135384;27;20281;-56
2023/10/06 10:42:56;;;;;;;9.73;5.47;;;20.50;99.90;;;;;;5135389;27;20199;-55
2023/10/06 10:45:31;;;;;;;9.60;6.72;;;20.70;99.90;;;;;;5135832;27;20774;-54
2023/10/06 10:47:59;;;;;;;9.15;6.72;;;20.90;99.90;;;;;;5135070;27;20965;-55
2023/10/06 10:50:28;;;;;;;10.65;6.38;;;20.90;99.90;;;;;;5134949;27;20767;-57
2023/10/06 10:52:57;;;;;;;11.25;6.43;;;21.10;99.90;;;;;;5135389;27;20195;-56
2023/10/06 10:55:26;;;;;;;13.52;6.90;;;21.20;99.90;;;;;;5135275;27;20209;-59
2023/10/06 10:57:56;;;;;;;9.25;5.63;;;21.40;99.90;;;;;;5134864;27;20313;-55
2023/10/06 11:00:25;;;;;;;9.80;5.70;;;21.60;99.90;;;;;;5135095;27;20203;-57
2023/10/06 11:03:05;;;;;;;9.63;5.75;;;21.80;99.90;;;;;;5134875;27;20201;-57
2023/10/06 11:05:33;;;;;;;10.27;5.80;;;21.90;99.90;;;;;;5133983;27;20259;-56
2023/10/06 11:08:02;;;;;;;13.48;6.82;;;22.20;99.90;;;;;;5114289;28;20231;-57
2023/10/06 11:10:32;;;;;;;13.57;5.95;;;22.50;99.90;;;;;;5114259;28;20212;-57
2023/10/06 11:13:15;;;;;;;15.25;6.28;;;22.60;99.90;;;;;;5114481;28;20199;-57
2023/10/06 11:15:43;;;;;;;10.05;5.25;;;22.80;99.90;;;;;;5114562;28;20207;-55
2023/10/06 11:18:13;;;;;;;9.02;5.68;;;23.00;99.90;;;;;;5114084;28;20255;-57
2023/10/06 11:20:41;;;;;;;16.35;5.45;;;23.20;99.90;;;;;;5112964;28;20200;-55
2023/10/06 11:23:09;;;;;;;9.38;5.97;;;23.40;99.90;;;;;;5118702;27;20209;-56
2023/10/06 11:25:43;;;;;;;12.10;5.43;;;23.50;99.90;;;;;;5123187;27;20289;-56
2023/10/06 11:28:12;;;;;;;9.23;5.70;;;23.70;99.90;;;;;;5113429;27;20238;-56
2023/10/06 11:30:42;;;;;;;12.02;5.40;;;23.80;99.90;;;;;;5112023;28;20241;-57
2023/10/06 11:33:13;;;;;;;6.90;4.57;;;24.00;99.90;;;;;;5113945;28;20290;-59
2023/10/06 11:35:42;;;;;;;11.18;5.05;;;24.00;99.90;;;;;;5113806;28;20204;-56
2023/10/06 11:38:11;;;;;;;8.35;4.80;;;24.20;99.90;;;;;;5113427;28;20306;-56
2023/10/06 11:40:40;;;;;;;9.45;4.90;;;24.20;99.90;;;;;;5113850;28;20210;-56
2023/10/06 11:43:10;;;;;;;11.55;4.78;;;24.10;99.90;;;;;;5113002;28;20211;-57
2023/10/06 11:45:38;;;;;;;10.15;4.80;;;24.20;99.90;;;;;;5113737;28;20211;-56
2023/10/06 11:48:22;;;;;;;14.13;5.65;;;24.30;99.90;;;;;;5113516;28;20890;-55
2023/10/06 11:50:59;;;;;;;11.93;5.50;;;24.00;99.90;;;;;;5113471;28;20302;-55
2023/10/06 11:53:27;;;;;;;14.63;4.80;;;24.00;99.90;;;;;;5113825;28;20203;-58
2023/10/06 11:56:05;;;;;;;11.60;5.05;;;23.90;99.90;;;;;;5113667;28;20196;-57
2023/10/06 11:58:35;;;;;;;8.73;4.85;;;24.20;99.90;;;;;;5113410;28;20254;-57
2023/10/06 12:01:04;;;;;;;9.55;4.85;;;24.50;99.90;;;;;;5113248;28;20199;-57
2023/10/06 12:03:34;;;;;;;10.52;4.43;;;24.80;99.90;;;;;;5113285;28;20211;-56
2023/10/06 12:06:03;;;;;;;10.05;4.93;;;24.80;99.90;;;;;;5113228;28;20195;-56
2023/10/06 12:08:31;;;;;;;9.85;4.93;;;24.90;99.90;;;;;;5113364;28;20294;-57
2023/10/06 12:11:03;;;;;;;8.57;4.15;;;25.00;99.90;;;;;;5113036;28;20239;-62
2023/10/06 12:13:32;;;;;;;11.07;4.68;;;24.90;99.90;;;;;;5113171;28;20584;-56
2023/10/06 12:16:00;;;;;;;11.63;5.05;;;24.80;99.90;;;;;;5112822;28;20211;-57
2023/10/06 12:18:29;;;;;;;8.95;4.65;;;24.80;99.90;;;;;;5112783;28;20207;-57
2023/10/06 12:20:56;;;;;;;11.38;4.40;;;24.80;99.90;;;;;;5112958;28;20272;-56
2023/10/06 12:23:26;;;;;;;9.02;4.07;;;24.80;99.90;;;;;;5112784;28;20234;-55
2023/10/06 12:25:55;;;;;;;10.10;5.10;;;24.80;99.90;;;;;;5112693;28;20320;-57
2023/10/06 12:28:25;;;;;;;11.93;4.07;;;25.10;99.90;;;;;;5112497;28;20231;-55
2023/10/06 12:30:54;;;;;;;12.85;3.90;;;25.40;99.90;;;;;;5112479;28;20200;-58
2023/10/06 12:33:22;;;;;;;11.95;4.20;;;25.50;99.90;;;;;;5112790;28;20199;-58
2023/10/06 12:35:52;;;;;;;10.10;3.55;;;25.60;99.90;;;;;;5112872;28;20229;-59
2023/10/06 12:38:20;;;;;;;11.25;4.03;;;25.60;99.90;;;;;;5112363;28;20271;-56
2023/10/06 12:40:49;;;;;;;15.52;4.68;;;25.60;99.90;;;;;;5112494;28;20223;-57
2023/10/06 12:43:19;;;;;;;10.50;4.20;;;25.60;99.90;;;;;;5112700;28;20632;-57
2023/10/06 12:45:47;;;;;;;12.13;4.38;;;25.60;99.90;;;;;;5112780;28;20267;-56
2023/10/06 12:48:16;;;;;;;9.85;4.20;;;25.50;99.90;;;;;;5112478;28;20299;-56
2023/10/06 12:50:44;;;;;;;8.63;4.07;;;25.40;99.90;;;;;;5114199;27;20200;-58
2023/10/06 12:53:12;;;;;;;11.77;4.45;;;25.50;99.90;;;;;;5132731;27;20199;-55
2023/10/06 12:55:41;;;;;;;11.88;4.47;;;25.40;99.90;;;;;;5132992;27;20218;-58
2023/10/06 12:58:14;;;;;;;8.73;4.40;;;25.40;99.90;;;;;;5132762;27;20226;-57
2023/10/06 13:00:42;;;;;;;13.32;4.85;;;25.40;99.90;;;;;;5132782;27;20223;-58
2023/10/06 13:03:15;;;;;;;9.93;4.80;;;25.30;99.90;;;;;;5132672;27;20267;-59